sensor_id;sensor_type;location;lat;lon;timestamp;P1;durP1;ratioP1;P2;durP2;ratioP2
4867;SDS011;2448;48.086;10.862;2022-07-05T00:01:51;0.40;;;0.40;;
4867;SDS011;2448;48.086;10.862;2022-07-05T00:04:16;0.40;;;0.40;;
4867;SDS011;2448;48.086;10.862;2022-07-05T00:06:42;0.40;;;0.40;;
4867;SDS011;2448;48.086;10.862;2022-07-05T00:09:27;0.40;;;0.40;;
4867;SDS011;2448;48.086;10.862;2022-07-05T00:11:53;0.40;;;0.40;;
4867;SDS011;2448;48.086;10.862;2022-07-05T00:14:18;0.40;;;0.40;;
4867;SDS011;2448;48.086;10.862;2022-07-05T00:16:44;0.40;;;0.40;;
4867;SDS011;2448;48.086;10.862;2022-07-05T00:19:09;0.40;;;0.40;;
4867;SDS011;2448;48.086;10.862;2022-07-05T00:21:35;0.40;;;0.40;;
4867;SDS011;2448;48.086;10.862;2022-07-05T00:24:00;0.40;;;0.40;;
4867;SDS011;2448;48.086;10.862;2022-07-05T00:26:25;0.40;;;0.40;;
4867;SDS011;2448;48.086;10.862;2022-07-05T00:28:51;0.40;;;0.40;;
4867;SDS011;2448;48.086;10.862;2022-07-05T00:31:16;0.40;;;0.40;;
4867;SDS011;2448;48.086;10.862;2022-07-05T00:33:42;0.40;;;0.40;;
4867;SDS011;2448;48.086;10.862;2022-07-05T00:36:07;0.40;;;0.40;;
4867;SDS011;2448;48.086;10.862;2022-07-05T00:38:32;0.40;;;0.40;;
4867;SDS011;2448;48.086;10.862;2022-07-05T00:40:58;0.40;;;0.40;;
4867;SDS011;2448;48.086;10.862;2022-07-05T00:43:23;0.40;;;0.40;;
4867;SDS011;2448;48.086;10.862;2022-07-05T00:45:49;0.37;;;0.37;;
4867;SDS011;2448;48.086;10.862;2022-07-05T00:48:14;0.40;;;0.40;;
4867;SDS011;2448;48.086;10.862;2022-07-05T00:50:40;0.40;;;0.40;;
4867;SDS011;2448;48.086;10.862;2022-07-05T00:53:06;0.40;;;0.40;;
4867;SDS011;2448;48.086;10.862;2022-07-05T00:55:31;0.40;;;0.40;;
4867;SDS011;2448;48.086;10.862;2022-07-05T00:57:57;0.40;;;0.40;;
4867;SDS011;2448;48.086;10.862;2022-07-05T01:00:22;0.40;;;0.40;;
4867;SDS011;2448;48.086;10.862;2022-07-05T01:02:48;0.40;;;0.40;;
4867;SDS011;2448;48.086;10.862;2022-07-05T01:05:14;0.37;;;0.37;;
4867;SDS011;2448;48.086;10.862;2022-07-05T01:07:39;0.30;;;0.30;;
4867;SDS011;2448;48.086;10.862;2022-07-05T01:10:05;0.40;;;0.40;;
4867;SDS011;2448;48.086;10.862;2022-07-05T01:12:30;0.30;;;0.30;;
4867;SDS011;2448;48.086;10.862;2022-07-05T01:14:56;0.40;;;0.40;;
4867;SDS011;2448;48.086;10.862;2022-07-05T01:17:23;0.40;;;0.40;;
4867;SDS011;2448;48.086;10.862;2022-07-05T01:19:49;0.40;;;0.40;;
4867;SDS011;2448;48.086;10.862;2022-07-05T01:22:16;0.33;;;0.33;;
4867;SDS011;2448;48.086;10.862;2022-07-05T01:24:43;0.40;;;0.40;;
4867;SDS011;2448;48.086;10.862;2022-07-05T01:27:08;0.30;;;0.30;;
4867;SDS011;2448;48.086;10.862;2022-07-05T01:29:34;0.40;;;0.40;;
4867;SDS011;2448;48.086;10.862;2022-07-05T01:31:59;0.40;;;0.40;;
4867;SDS011;2448;48.086;10.862;2022-07-05T01:34:25;0.40;;;0.40;;
4867;SDS011;2448;48.086;10.862;2022-07-05T01:36:51;0.30;;;0.30;;
4867;SDS011;2448;48.086;10.862;2022-07-05T01:39:16;0.40;;;0.40;;
4867;SDS011;2448;48.086;10.862;2022-07-05T01:41:42;0.40;;;0.40;;
4867;SDS011;2448;48.086;10.862;2022-07-05T01:44:07;0.40;;;0.40;;
4867;SDS011;2448;48.086;10.862;2022-07-05T01:46:33;0.40;;;0.40;;
4867;SDS011;2448;48.086;10.862;2022-07-05T01:49:03;0.40;;;0.40;;
4867;SDS011;2448;48.086;10.862;2022-07-05T01:51:30;0.40;;;0.40;;
4867;SDS011;2448;48.086;10.862;2022-07-05T01:53:58;0.40;;;0.40;;
4867;SDS011;2448;48.086;10.862;2022-07-05T01:56:23;0.40;;;0.40;;
4867;SDS011;2448;48.086;10.862;2022-07-05T01:58:49;0.40;;;0.40;;
4867;SDS011;2448;48.086;10.862;2022-07-05T02:01:15;0.40;;;0.40;;
4867;SDS011;2448;48.086;10.862;2022-07-05T02:03:56;0.37;;;0.37;;
4867;SDS011;2448;48.086;10.862;2022-07-05T02:06:22;0.40;;;0.40;;
4867;SDS011;2448;48.086;10.862;2022-07-05T02:08:47;0.40;;;0.40;;
4867;SDS011;2448;48.086;10.862;2022-07-05T02:11:13;0.37;;;0.37;;
4867;SDS011;2448;48.086;10.862;2022-07-05T02:13:38;0.40;;;0.40;;
4867;SDS011;2448;48.086;10.862;2022-07-05T02:16:04;0.40;;;0.40;;
4867;SDS011;2448;48.086;10.862;2022-07-05T02:18:29;0.40;;;0.40;;
4867;SDS011;2448;48.086;10.862;2022-07-05T02:20:55;0.30;;;0.30;;
4867;SDS011;2448;48.086;10.862;2022-07-05T02:23:20;0.40;;;0.40;;
4867;SDS011;2448;48.086;10.862;2022-07-05T02:25:46;0.30;;;0.30;;
4867;SDS011;2448;48.086;10.862;2022-07-05T02:28:14;0.40;;;0.40;;
4867;SDS011;2448;48.086;10.862;2022-07-05T02:30:42;0.40;;;0.40;;
4867;SDS011;2448;48.086;10.862;2022-07-05T02:33:07;0.40;;;0.40;;
4867;SDS011;2448;48.086;10.862;2022-07-05T02:35:33;0.40;;;0.40;;
4867;SDS011;2448;48.086;10.862;2022-07-05T02:37:58;0.40;;;0.40;;
4867;SDS011;2448;48.086;10.862;2022-07-05T02:40:24;0.40;;;0.40;;
4867;SDS011;2448;48.086;10.862;2022-07-05T02:42:50;0.30;;;0.30;;
4867;SDS011;2448;48.086;10.862;2022-07-05T02:45:17;0.40;;;0.40;;
4867;SDS011;2448;48.086;10.862;2022-07-05T02:47:45;0.40;;;0.40;;
4867;SDS011;2448;48.086;10.862;2022-07-05T02:50:12;0.40;;;0.40;;
4867;SDS011;2448;48.086;10.862;2022-07-05T02:52:45;0.40;;;0.40;;
4867;SDS011;2448;48.086;10.862;2022-07-05T02:55:11;0.40;;;0.40;;
4867;SDS011;2448;48.086;10.862;2022-07-05T02:57:37;0.40;;;0.40;;
4867;SDS011;2448;48.086;10.862;2022-07-05T03:00:04;0.40;;;0.40;;
4867;SDS011;2448;48.086;10.862;2022-07-05T03:02:37;0.30;;;0.30;;
4867;SDS011;2448;48.086;10.862;2022-07-05T03:05:03;0.40;;;0.40;;
4867;SDS011;2448;48.086;10.862;2022-07-05T03:07:29;0.40;;;0.40;;
4867;SDS011;2448;48.086;10.862;2022-07-05T03:09:54;0.40;;;0.40;;
4867;SDS011;2448;48.086;10.862;2022-07-05T03:12:22;0.40;;;0.40;;
4867;SDS011;2448;48.086;10.862;2022-07-05T03:14:47;0.40;;;0.40;;
4867;SDS011;2448;48.086;10.862;2022-07-05T03:17:14;0.40;;;0.40;;
4867;SDS011;2448;48.086;10.862;2022-07-05T03:19:39;0.40;;;0.40;;
4867;SDS011;2448;48.086;10.862;2022-07-05T03:22:07;0.40;;;0.40;;
4867;SDS011;2448;48.086;10.862;2022-07-05T03:24:34;0.33;;;0.33;;
4867;SDS011;2448;48.086;10.862;2022-07-05T03:26:59;0.40;;;0.40;;
4867;SDS011;2448;48.086;10.862;2022-07-05T03:29:25;0.40;;;0.40;;
4867;SDS011;2448;48.086;10.862;2022-07-05T03:31:52;0.40;;;0.40;;
4867;SDS011;2448;48.086;10.862;2022-07-05T03:34:18;0.40;;;0.40;;
4867;SDS011;2448;48.086;10.862;2022-07-05T03:36:44;0.40;;;0.40;;
4867;SDS011;2448;48.086;10.862;2022-07-05T03:39:14;0.40;;;0.40;;
4867;SDS011;2448;48.086;10.862;2022-07-05T03:41:40;0.40;;;0.40;;
4867;SDS011;2448;48.086;10.862;2022-07-05T03:44:07;0.40;;;0.40;;
4867;SDS011;2448;48.086;10.862;2022-07-05T03:46:34;0.40;;;0.40;;
4867;SDS011;2448;48.086;10.862;2022-07-05T03:48:59;0.40;;;0.40;;
4867;SDS011;2448;48.086;10.862;2022-07-05T03:51:25;0.40;;;0.40;;
4867;SDS011;2448;48.086;10.862;2022-07-05T03:53:52;0.40;;;0.40;;
4867;SDS011;2448;48.086;10.862;2022-07-05T03:56:18;0.40;;;0.40;;
4867;SDS011;2448;48.086;10.862;2022-07-05T03:58:47;0.40;;;0.40;;
4867;SDS011;2448;48.086;10.862;2022-07-05T04:01:12;0.40;;;0.40;;
4867;SDS011;2448;48.086;10.862;2022-07-05T04:03:38;0.40;;;0.40;;
4867;SDS011;2448;48.086;10.862;2022-07-05T04:06:03;0.40;;;0.40;;
4867;SDS011;2448;48.086;10.862;2022-07-05T04:08:31;0.40;;;0.40;;
4867;SDS011;2448;48.086;10.862;2022-07-05T04:10:56;0.40;;;0.40;;
4867;SDS011;2448;48.086;10.862;2022-07-05T04:13:22;0.40;;;0.40;;
4867;SDS011;2448;48.086;10.862;2022-07-05T04:15:49;0.40;;;0.40;;
4867;SDS011;2448;48.086;10.862;2022-07-05T04:18:15;0.40;;;0.40;;
4867;SDS011;2448;48.086;10.862;2022-07-05T04:20:41;0.40;;;0.40;;
4867;SDS011;2448;48.086;10.862;2022-07-05T04:23:09;0.40;;;0.40;;
4867;SDS011;2448;48.086;10.862;2022-07-05T04:25:35;0.40;;;0.40;;
4867;SDS011;2448;48.086;10.862;2022-07-05T04:28:10;0.40;;;0.40;;
4867;SDS011;2448;48.086;10.862;2022-07-05T04:30:37;0.40;;;0.40;;
4867;SDS011;2448;48.086;10.862;2022-07-05T04:33:04;0.40;;;0.40;;
4867;SDS011;2448;48.086;10.862;2022-07-05T04:35:30;0.40;;;0.40;;
4867;SDS011;2448;48.086;10.862;2022-07-05T04:37:55;0.40;;;0.40;;
4867;SDS011;2448;48.086;10.862;2022-07-05T04:40:22;0.40;;;0.40;;
4867;SDS011;2448;48.086;10.862;2022-07-05T04:42:49;0.40;;;0.40;;
4867;SDS011;2448;48.086;10.862;2022-07-05T04:45:15;0.40;;;0.40;;
4867;SDS011;2448;48.086;10.862;2022-07-05T04:47:41;0.40;;;0.40;;
4867;SDS011;2448;48.086;10.862;2022-07-05T04:50:07;0.40;;;0.40;;
4867;SDS011;2448;48.086;10.862;2022-07-05T04:52:33;0.40;;;0.40;;
4867;SDS011;2448;48.086;10.862;2022-07-05T04:54:58;0.30;;;0.30;;
4867;SDS011;2448;48.086;10.862;2022-07-05T04:57:24;0.40;;;0.40;;
4867;SDS011;2448;48.086;10.862;2022-07-05T04:59:49;0.40;;;0.40;;
4867;SDS011;2448;48.086;10.862;2022-07-05T05:02:15;0.40;;;0.40;;
4867;SDS011;2448;48.086;10.862;2022-07-05T05:04:40;0.40;;;0.40;;
4867;SDS011;2448;48.086;10.862;2022-07-05T05:07:06;0.40;;;0.40;;
4867;SDS011;2448;48.086;10.862;2022-07-05T05:09:31;0.40;;;0.40;;
4867;SDS011;2448;48.086;10.862;2022-07-05T05:11:56;0.40;;;0.40;;
4867;SDS011;2448;48.086;10.862;2022-07-05T05:14:22;0.40;;;0.40;;
4867;SDS011;2448;48.086;10.862;2022-07-05T05:16:47;0.40;;;0.40;;
4867;SDS011;2448;48.086;10.862;2022-07-05T05:19:12;0.40;;;0.40;;
4867;SDS011;2448;48.086;10.862;2022-07-05T05:21:38;0.40;;;0.40;;
4867;SDS011;2448;48.086;10.862;2022-07-05T05:24:03;0.40;;;0.40;;
4867;SDS011;2448;48.086;10.862;2022-07-05T05:26:29;0.40;;;0.40;;
4867;SDS011;2448;48.086;10.862;2022-07-05T05:28:54;0.40;;;0.40;;
4867;SDS011;2448;48.086;10.862;2022-07-05T05:31:20;0.40;;;0.40;;
4867;SDS011;2448;48.086;10.862;2022-07-05T05:33:45;0.40;;;0.40;;
4867;SDS011;2448;48.086;10.862;2022-07-05T05:36:11;0.30;;;0.30;;
4867;SDS011;2448;48.086;10.862;2022-07-05T05:38:37;0.40;;;0.40;;
4867;SDS011;2448;48.086;10.862;2022-07-05T05:41:02;0.40;;;0.40;;
4867;SDS011;2448;48.086;10.862;2022-07-05T05:43:28;0.40;;;0.40;;
4867;SDS011;2448;48.086;10.862;2022-07-05T05:45:53;0.40;;;0.40;;
4867;SDS011;2448;48.086;10.862;2022-07-05T05:48:18;0.40;;;0.40;;
4867;SDS011;2448;48.086;10.862;2022-07-05T05:50:45;0.37;;;0.37;;
4867;SDS011;2448;48.086;10.862;2022-07-05T05:53:10;0.40;;;0.40;;
4867;SDS011;2448;48.086;10.862;2022-07-05T05:55:36;0.40;;;0.40;;
4867;SDS011;2448;48.086;10.862;2022-07-05T05:58:11;0.40;;;0.40;;
4867;SDS011;2448;48.086;10.862;2022-07-05T06:00:37;0.40;;;0.40;;
4867;SDS011;2448;48.086;10.862;2022-07-05T06:03:02;0.40;;;0.40;;
4867;SDS011;2448;48.086;10.862;2022-07-05T06:05:27;0.40;;;0.40;;
4867;SDS011;2448;48.086;10.862;2022-07-05T06:07:54;0.30;;;0.30;;
4867;SDS011;2448;48.086;10.862;2022-07-05T06:10:23;0.40;;;0.40;;
4867;SDS011;2448;48.086;10.862;2022-07-05T06:12:49;0.30;;;0.30;;
4867;SDS011;2448;48.086;10.862;2022-07-05T06:15:15;0.40;;;0.40;;
4867;SDS011;2448;48.086;10.862;2022-07-05T06:17:40;0.33;;;0.33;;
4867;SDS011;2448;48.086;10.862;2022-07-05T06:20:09;0.40;;;0.40;;
4867;SDS011;2448;48.086;10.862;2022-07-05T06:22:35;0.30;;;0.30;;
4867;SDS011;2448;48.086;10.862;2022-07-05T06:25:01;0.40;;;0.40;;
4867;SDS011;2448;48.086;10.862;2022-07-05T06:27:26;0.40;;;0.40;;
4867;SDS011;2448;48.086;10.862;2022-07-05T06:29:51;0.40;;;0.40;;
4867;SDS011;2448;48.086;10.862;2022-07-05T06:32:17;0.37;;;0.37;;
4867;SDS011;2448;48.086;10.862;2022-07-05T06:34:42;0.40;;;0.40;;
4867;SDS011;2448;48.086;10.862;2022-07-05T06:37:08;0.40;;;0.40;;
4867;SDS011;2448;48.086;10.862;2022-07-05T06:39:33;0.30;;;0.30;;
4867;SDS011;2448;48.086;10.862;2022-07-05T06:41:59;0.30;;;0.30;;
4867;SDS011;2448;48.086;10.862;2022-07-05T06:44:24;0.30;;;0.30;;
4867;SDS011;2448;48.086;10.862;2022-07-05T06:46:50;0.30;;;0.30;;
4867;SDS011;2448;48.086;10.862;2022-07-05T06:49:15;0.30;;;0.30;;
4867;SDS011;2448;48.086;10.862;2022-07-05T06:51:41;0.40;;;0.40;;
4867;SDS011;2448;48.086;10.862;2022-07-05T06:54:06;0.30;;;0.30;;
4867;SDS011;2448;48.086;10.862;2022-07-05T06:56:31;0.30;;;0.30;;
4867;SDS011;2448;48.086;10.862;2022-07-05T06:58:57;0.40;;;0.40;;
4867;SDS011;2448;48.086;10.862;2022-07-05T07:01:22;0.30;;;0.30;;
4867;SDS011;2448;48.086;10.862;2022-07-05T07:03:47;0.30;;;0.30;;
4867;SDS011;2448;48.086;10.862;2022-07-05T07:06:13;0.30;;;0.30;;
4867;SDS011;2448;48.086;10.862;2022-07-05T07:08:38;0.30;;;0.30;;
4867;SDS011;2448;48.086;10.862;2022-07-05T07:11:23;0.30;;;0.30;;
4867;SDS011;2448;48.086;10.862;2022-07-05T07:13:48;0.30;;;0.30;;
4867;SDS011;2448;48.086;10.862;2022-07-05T07:16:13;0.30;;;0.30;;
4867;SDS011;2448;48.086;10.862;2022-07-05T07:18:39;0.40;;;0.40;;
4867;SDS011;2448;48.086;10.862;2022-07-05T07:21:04;0.30;;;0.30;;
4867;SDS011;2448;48.086;10.862;2022-07-05T07:23:30;0.30;;;0.30;;
4867;SDS011;2448;48.086;10.862;2022-07-05T07:25:55;0.30;;;0.30;;
4867;SDS011;2448;48.086;10.862;2022-07-05T07:28:21;0.30;;;0.30;;
4867;SDS011;2448;48.086;10.862;2022-07-05T07:30:46;0.30;;;0.30;;
4867;SDS011;2448;48.086;10.862;2022-07-05T07:33:12;0.30;;;0.30;;
4867;SDS011;2448;48.086;10.862;2022-07-05T07:35:37;0.30;;;0.30;;
4867;SDS011;2448;48.086;10.862;2022-07-05T07:38:02;0.30;;;0.30;;
4867;SDS011;2448;48.086;10.862;2022-07-05T07:40:28;0.30;;;0.30;;
4867;SDS011;2448;48.086;10.862;2022-07-05T07:42:53;0.30;;;0.30;;
4867;SDS011;2448;48.086;10.862;2022-07-05T07:45:19;0.30;;;0.30;;
4867;SDS011;2448;48.086;10.862;2022-07-05T07:47:44;0.30;;;0.30;;
4867;SDS011;2448;48.086;10.862;2022-07-05T07:50:10;0.30;;;0.30;;
4867;SDS011;2448;48.086;10.862;2022-07-05T07:52:35;0.30;;;0.30;;
4867;SDS011;2448;48.086;10.862;2022-07-05T07:55:03;0.30;;;0.30;;
4867;SDS011;2448;48.086;10.862;2022-07-05T07:57:29;0.30;;;0.30;;
4867;SDS011;2448;48.086;10.862;2022-07-05T07:59:54;0.30;;;0.30;;
4867;SDS011;2448;48.086;10.862;2022-07-05T08:02:20;0.30;;;0.30;;
4867;SDS011;2448;48.086;10.862;2022-07-05T08:04:48;0.30;;;0.30;;
4867;SDS011;2448;48.086;10.862;2022-07-05T08:07:14;0.30;;;0.30;;
4867;SDS011;2448;48.086;10.862;2022-07-05T08:09:39;0.30;;;0.30;;
4867;SDS011;2448;48.086;10.862;2022-07-05T08:12:05;0.30;;;0.30;;
4867;SDS011;2448;48.086;10.862;2022-07-05T08:14:31;0.30;;;0.30;;
4867;SDS011;2448;48.086;10.862;2022-07-05T08:16:56;0.30;;;0.30;;
4867;SDS011;2448;48.086;10.862;2022-07-05T08:19:23;0.30;;;0.30;;
4867;SDS011;2448;48.086;10.862;2022-07-05T08:22:07;0.30;;;0.30;;
4867;SDS011;2448;48.086;10.862;2022-07-05T08:24:33;0.30;;;0.30;;
4867;SDS011;2448;48.086;10.862;2022-07-05T08:26:58;0.30;;;0.30;;
4867;SDS011;2448;48.086;10.862;2022-07-05T08:29:24;0.30;;;0.30;;
4867;SDS011;2448;48.086;10.862;2022-07-05T08:31:50;0.30;;;0.30;;
4867;SDS011;2448;48.086;10.862;2022-07-05T08:34:15;0.30;;;0.30;;
4867;SDS011;2448;48.086;10.862;2022-07-05T08:36:43;0.30;;;0.30;;
4867;SDS011;2448;48.086;10.862;2022-07-05T08:39:08;0.30;;;0.30;;
4867;SDS011;2448;48.086;10.862;2022-07-05T08:41:36;0.30;;;0.30;;
4867;SDS011;2448;48.086;10.862;2022-07-05T08:44:02;0.30;;;0.30;;
4867;SDS011;2448;48.086;10.862;2022-07-05T08:46:29;0.30;;;0.30;;
4867;SDS011;2448;48.086;10.862;2022-07-05T08:48:55;0.30;;;0.30;;
4867;SDS011;2448;48.086;10.862;2022-07-05T08:51:21;0.30;;;0.30;;
4867;SDS011;2448;48.086;10.862;2022-07-05T08:53:48;0.30;;;0.30;;
4867;SDS011;2448;48.086;10.862;2022-07-05T08:56:14;0.30;;;0.30;;
4867;SDS011;2448;48.086;10.862;2022-07-05T08:58:40;0.30;;;0.30;;
4867;SDS011;2448;48.086;10.862;2022-07-05T09:01:06;0.30;;;0.30;;
4867;SDS011;2448;48.086;10.862;2022-07-05T09:03:33;0.30;;;0.30;;
4867;SDS011;2448;48.086;10.862;2022-07-05T09:06:03;0.30;;;0.30;;
4867;SDS011;2448;48.086;10.862;2022-07-05T09:08:29;0.30;;;0.30;;
4867;SDS011;2448;48.086;10.862;2022-07-05T09:10:57;0.30;;;0.30;;
4867;SDS011;2448;48.086;10.862;2022-07-05T09:13:23;0.30;;;0.30;;
4867;SDS011;2448;48.086;10.862;2022-07-05T09:15:48;0.30;;;0.30;;
4867;SDS011;2448;48.086;10.862;2022-07-05T09:18:18;0.30;;;0.30;;
4867;SDS011;2448;48.086;10.862;2022-07-05T09:21:11;0.30;;;0.30;;
4867;SDS011;2448;48.086;10.862;2022-07-05T09:23:36;0.30;;;0.30;;
4867;SDS011;2448;48.086;10.862;2022-07-05T09:26:02;0.30;;;0.30;;
4867;SDS011;2448;48.086;10.862;2022-07-05T09:28:27;0.30;;;0.30;;
4867;SDS011;2448;48.086;10.862;2022-07-05T09:30:53;0.30;;;0.30;;
4867;SDS011;2448;48.086;10.862;2022-07-05T09:33:18;0.30;;;0.30;;
4867;SDS011;2448;48.086;10.862;2022-07-05T09:35:56;0.30;;;0.30;;
4867;SDS011;2448;48.086;10.862;2022-07-05T09:38:26;0.30;;;0.30;;
4867;SDS011;2448;48.086;10.862;2022-07-05T09:40:53;0.30;;;0.30;;
4867;SDS011;2448;48.086;10.862;2022-07-05T09:43:19;0.30;;;0.30;;
4867;SDS011;2448;48.086;10.862;2022-07-05T09:48:19;0.30;;;0.30;;
4867;SDS011;2448;48.086;10.862;2022-07-05T09:50:45;0.30;;;0.30;;
4867;SDS011;2448;48.086;10.862;2022-07-05T09:53:10;0.93;;;0.93;;
4867;SDS011;2448;48.086;10.862;2022-07-05T09:55:38;1.53;;;1.43;;
4867;SDS011;2448;48.086;10.862;2022-07-05T09:58:05;1.40;;;1.40;;
4867;SDS011;2448;48.086;10.862;2022-07-05T10:00:30;1.57;;;1.50;;
4867;SDS011;2448;48.086;10.862;2022-07-05T10:02:56;1.43;;;1.43;;
4867;SDS011;2448;48.086;10.862;2022-07-05T10:05:32;1.48;;;1.38;;
4867;SDS011;2448;48.086;10.862;2022-07-05T10:08:00;3.60;;;1.57;;
4867;SDS011;2448;48.086;10.862;2022-07-05T10:10:30;1.85;;;1.40;;
4867;SDS011;2448;48.086;10.862;2022-07-05T10:12:57;2.10;;;1.50;;
4867;SDS011;2448;48.086;10.862;2022-07-05T10:15:24;4.10;;;1.43;;
4867;SDS011;2448;48.086;10.862;2022-07-05T10:17:54;2.57;;;1.30;;
4867;SDS011;2448;48.086;10.862;2022-07-05T10:22:46;1.83;;;1.73;;
4867;SDS011;2448;48.086;10.862;2022-07-05T10:25:13;3.07;;;1.50;;
4867;SDS011;2448;48.086;10.862;2022-07-05T10:27:38;1.52;;;1.42;;
4867;SDS011;2448;48.086;10.862;2022-07-05T10:30:04;1.60;;;1.45;;
4867;SDS011;2448;48.086;10.862;2022-07-05T10:32:30;1.50;;;1.40;;
4867;SDS011;2448;48.086;10.862;2022-07-05T10:34:57;1.57;;;1.50;;
4867;SDS011;2448;48.086;10.862;2022-07-05T10:37:26;1.35;;;1.30;;
4867;SDS011;2448;48.086;10.862;2022-07-05T10:39:57;1.77;;;1.67;;
4867;SDS011;2448;48.086;10.862;2022-07-05T10:42:23;1.53;;;1.53;;
4867;SDS011;2448;48.086;10.862;2022-07-05T10:44:49;1.73;;;1.63;;
4867;SDS011;2448;48.086;10.862;2022-07-05T10:47:15;4.50;;;2.37;;
4867;SDS011;2448;48.086;10.862;2022-07-05T10:49:40;2.43;;;1.67;;
4867;SDS011;2448;48.086;10.862;2022-07-05T10:52:24;1.70;;;1.60;;
4867;SDS011;2448;48.086;10.862;2022-07-05T10:55:23;2.25;;;1.30;;
4867;SDS011;2448;48.086;10.862;2022-07-05T10:57:42;2.57;;;1.60;;
4867;SDS011;2448;48.086;10.862;2022-07-05T11:00:07;1.70;;;1.70;;
4867;SDS011;2448;48.086;10.862;2022-07-05T11:02:33;12.60;;;1.87;;
4867;SDS011;2448;48.086;10.862;2022-07-05T11:04:59;1.27;;;1.27;;
4867;SDS011;2448;48.086;10.862;2022-07-05T11:10:08;1.30;;;1.30;;
4867;SDS011;2448;48.086;10.862;2022-07-05T11:12:37;2.77;;;1.60;;
4867;SDS011;2448;48.086;10.862;2022-07-05T11:15:05;3.03;;;1.70;;
4867;SDS011;2448;48.086;10.862;2022-07-05T11:17:34;1.33;;;1.23;;
4867;SDS011;2448;48.086;10.862;2022-07-05T11:22:27;1.60;;;1.50;;
4867;SDS011;2448;48.086;10.862;2022-07-05T11:24:53;9.30;;;1.60;;
4867;SDS011;2448;48.086;10.862;2022-07-05T11:27:18;1.70;;;1.60;;
4867;SDS011;2448;48.086;10.862;2022-07-05T11:29:44;1.13;;;0.97;;
4867;SDS011;2448;48.086;10.862;2022-07-05T11:32:14;1.57;;;1.40;;
4867;SDS011;2448;48.086;10.862;2022-07-05T11:34:40;18.07;;;1.20;;
4867;SDS011;2448;48.086;10.862;2022-07-05T11:37:22;1.20;;;1.10;;
4867;SDS011;2448;48.086;10.862;2022-07-05T11:42:48;1.95;;;1.10;;
4867;SDS011;2448;48.086;10.862;2022-07-05T11:45:14;1.00;;;1.00;;
4867;SDS011;2448;48.086;10.862;2022-07-05T11:47:40;1.03;;;1.03;;
4867;SDS011;2448;48.086;10.862;2022-07-05T11:50:06;3.72;;;1.15;;
4867;SDS011;2448;48.086;10.862;2022-07-05T11:52:33;1.10;;;1.10;;
4867;SDS011;2448;48.086;10.862;2022-07-05T11:55:16;1.25;;;0.90;;
4867;SDS011;2448;48.086;10.862;2022-07-05T11:57:49;1.20;;;1.20;;
4867;SDS011;2448;48.086;10.862;2022-07-05T12:00:24;1.50;;;1.17;;
4867;SDS011;2448;48.086;10.862;2022-07-05T12:02:50;2.07;;;1.10;;
4867;SDS011;2448;48.086;10.862;2022-07-05T12:05:15;2.93;;;1.20;;
4867;SDS011;2448;48.086;10.862;2022-07-05T12:07:47;1.70;;;1.60;;
4867;SDS011;2448;48.086;10.862;2022-07-05T12:10:13;1.27;;;1.00;;
4867;SDS011;2448;48.086;10.862;2022-07-05T12:13:05;1.37;;;1.37;;
4867;SDS011;2448;48.086;10.862;2022-07-05T12:15:31;5.33;;;1.50;;
4867;SDS011;2448;48.086;10.862;2022-07-05T12:17:57;1.47;;;1.40;;
4867;SDS011;2448;48.086;10.862;2022-07-05T12:20:25;1.80;;;1.60;;
4867;SDS011;2448;48.086;10.862;2022-07-05T12:22:50;0.90;;;0.90;;
4867;SDS011;2448;48.086;10.862;2022-07-05T12:25:16;3.70;;;1.40;;
4867;SDS011;2448;48.086;10.862;2022-07-05T12:27:42;1.30;;;1.20;;
4867;SDS011;2448;48.086;10.862;2022-07-05T12:30:08;1.30;;;1.20;;
4867;SDS011;2448;48.086;10.862;2022-07-05T12:32:52;2.30;;;1.50;;
4867;SDS011;2448;48.086;10.862;2022-07-05T12:35:38;1.37;;;1.37;;
4867;SDS011;2448;48.086;10.862;2022-07-05T12:38:05;1.40;;;1.30;;
4867;SDS011;2448;48.086;10.862;2022-07-05T12:40:30;4.10;;;1.43;;
4867;SDS011;2448;48.086;10.862;2022-07-05T12:43:00;1.37;;;1.37;;
4867;SDS011;2448;48.086;10.862;2022-07-05T12:45:25;1.47;;;1.47;;
4867;SDS011;2448;48.086;10.862;2022-07-05T12:47:52;1.40;;;1.30;;
4867;SDS011;2448;48.086;10.862;2022-07-05T12:50:24;1.20;;;1.20;;
4867;SDS011;2448;48.086;10.862;2022-07-05T12:53:05;3.70;;;1.40;;
4867;SDS011;2448;48.086;10.862;2022-07-05T12:55:50;3.80;;;1.50;;
4867;SDS011;2448;48.086;10.862;2022-07-05T12:58:47;3.83;;;1.30;;
4867;SDS011;2448;48.086;10.862;2022-07-05T13:01:29;1.60;;;1.10;;
4867;SDS011;2448;48.086;10.862;2022-07-05T13:04:00;5.50;;;1.20;;
4867;SDS011;2448;48.086;10.862;2022-07-05T13:09:11;9.40;;;1.53;;
4867;SDS011;2448;48.086;10.862;2022-07-05T13:11:36;3.43;;;1.13;;
4867;SDS011;2448;48.086;10.862;2022-07-05T13:14:02;2.10;;;1.10;;
4867;SDS011;2448;48.086;10.862;2022-07-05T13:16:27;1.30;;;1.30;;
4867;SDS011;2448;48.086;10.862;2022-07-05T13:18:52;2.23;;;1.67;;
4867;SDS011;2448;48.086;10.862;2022-07-05T13:21:18;1.40;;;1.30;;
4867;SDS011;2448;48.086;10.862;2022-07-05T13:23:43;1.57;;;1.47;;
4867;SDS011;2448;48.086;10.862;2022-07-05T13:26:09;1.27;;;1.27;;
4867;SDS011;2448;48.086;10.862;2022-07-05T13:28:34;2.40;;;1.90;;
4867;SDS011;2448;48.086;10.862;2022-07-05T13:31:00;1.60;;;1.50;;
4867;SDS011;2448;48.086;10.862;2022-07-05T13:33:25;1.57;;;1.53;;
4867;SDS011;2448;48.086;10.862;2022-07-05T13:35:50;1.20;;;1.20;;
4867;SDS011;2448;48.086;10.862;2022-07-05T13:38:16;1.77;;;1.67;;
4867;SDS011;2448;48.086;10.862;2022-07-05T13:40:41;2.00;;;1.90;;
4867;SDS011;2448;48.086;10.862;2022-07-05T13:43:06;5.73;;;1.30;;
4867;SDS011;2448;48.086;10.862;2022-07-05T13:45:32;1.30;;;1.30;;
4867;SDS011;2448;48.086;10.862;2022-07-05T13:47:57;6.40;;;1.47;;
4867;SDS011;2448;48.086;10.862;2022-07-05T13:50:23;1.57;;;1.23;;
4867;SDS011;2448;48.086;10.862;2022-07-05T13:52:57;1.23;;;1.23;;
4867;SDS011;2448;48.086;10.862;2022-07-05T13:55:23;1.27;;;1.17;;
4867;SDS011;2448;48.086;10.862;2022-07-05T13:57:49;1.17;;;1.13;;
4867;SDS011;2448;48.086;10.862;2022-07-05T14:00:14;1.17;;;1.17;;
4867;SDS011;2448;48.086;10.862;2022-07-05T14:02:40;1.30;;;1.30;;
4867;SDS011;2448;48.086;10.862;2022-07-05T14:05:05;3.53;;;1.20;;
4867;SDS011;2448;48.086;10.862;2022-07-05T14:07:31;1.10;;;1.10;;
4867;SDS011;2448;48.086;10.862;2022-07-05T14:09:56;1.50;;;1.40;;
4867;SDS011;2448;48.086;10.862;2022-07-05T14:12:21;2.80;;;1.70;;
4867;SDS011;2448;48.086;10.862;2022-07-05T14:14:47;1.20;;;1.20;;
4867;SDS011;2448;48.086;10.862;2022-07-05T14:17:12;1.50;;;1.50;;
4867;SDS011;2448;48.086;10.862;2022-07-05T14:19:37;1.30;;;1.30;;
4867;SDS011;2448;48.086;10.862;2022-07-05T14:22:03;1.13;;;1.13;;
4867;SDS011;2448;48.086;10.862;2022-07-05T14:24:28;1.10;;;1.10;;
4867;SDS011;2448;48.086;10.862;2022-07-05T14:26:54;1.20;;;1.20;;
4867;SDS011;2448;48.086;10.862;2022-07-05T14:29:19;1.10;;;1.10;;
4867;SDS011;2448;48.086;10.862;2022-07-05T14:31:44;1.20;;;1.20;;
4867;SDS011;2448;48.086;10.862;2022-07-05T14:34:10;3.63;;;1.20;;
4867;SDS011;2448;48.086;10.862;2022-07-05T14:36:35;3.63;;;1.30;;
4867;SDS011;2448;48.086;10.862;2022-07-05T14:39:01;2.30;;;1.20;;
4867;SDS011;2448;48.086;10.862;2022-07-05T14:41:26;1.43;;;0.93;;
4867;SDS011;2448;48.086;10.862;2022-07-05T14:43:52;1.13;;;1.10;;
4867;SDS011;2448;48.086;10.862;2022-07-05T14:46:19;1.20;;;1.20;;
4867;SDS011;2448;48.086;10.862;2022-07-05T14:48:45;1.43;;;1.43;;
4867;SDS011;2448;48.086;10.862;2022-07-05T14:51:10;1.10;;;1.10;;
4867;SDS011;2448;48.086;10.862;2022-07-05T14:53:36;1.27;;;1.27;;
4867;SDS011;2448;48.086;10.862;2022-07-05T14:56:01;1.13;;;1.13;;
4867;SDS011;2448;48.086;10.862;2022-07-05T14:58:27;3.13;;;1.20;;
4867;SDS011;2448;48.086;10.862;2022-07-05T15:00:57;1.23;;;1.10;;
4867;SDS011;2448;48.086;10.862;2022-07-05T15:03:22;11.50;;;1.43;;
4867;SDS011;2448;48.086;10.862;2022-07-05T15:05:49;5.60;;;0.90;;
4867;SDS011;2448;48.086;10.862;2022-07-05T15:08:14;4.10;;;1.30;;
4867;SDS011;2448;48.086;10.862;2022-07-05T15:10:40;8.90;;;1.10;;
4867;SDS011;2448;48.086;10.862;2022-07-05T15:13:05;0.80;;;0.80;;
4867;SDS011;2448;48.086;10.862;2022-07-05T15:15:32;3.17;;;0.87;;